Map

Track Data

SID SEASON NUMBER BASIN SUBBASIN NAME ISO_TIME NATURE LAT LON WMO_WIND WMO_PRES WMO_AGENCY TRACK_TYPE DIST2LAND LANDFALL IFLAG USA_AGENCY USA_ATCF_ID USA_LAT USA_LON USA_RECORD USA_STATUS USA_WIND USA_PRES USA_SSHS USA_R34_NE USA_R34_SE USA_R34_SW USA_R34_NW USA_R50_NE USA_R50_SE USA_R50_SW USA_R50_NW USA_R64_NE USA_R64_SE USA_R64_SW USA_R64_NW USA_POCI USA_ROCI USA_RMW USA_EYE TOKYO_LAT TOKYO_LON TOKYO_GRADE TOKYO_WIND TOKYO_PRES TOKYO_R50_DIR TOKYO_R50_LONG TOKYO_R50_SHORT TOKYO_R30_DIR TOKYO_R30_LONG TOKYO_R30_SHORT TOKYO_LAND CMA_LAT CMA_LON CMA_CAT CMA_WIND CMA_PRES HKO_LAT HKO_LON HKO_CAT HKO_WIND HKO_PRES NEWDELHI_LAT NEWDELHI_LON NEWDELHI_GRADE NEWDELHI_WIND NEWDELHI_PRES NEWDELHI_CI NEWDELHI_DP NEWDELHI_POCI REUNION_LAT REUNION_LON REUNION_TYPE REUNION_WIND REUNION_PRES REUNION_TNUM REUNION_CI REUNION_RMW REUNION_R34_NE REUNION_R34_SE REUNION_R34_SW REUNION_R34_NW REUNION_R50_NE REUNION_R50_SE REUNION_R50_SW REUNION_R50_NW REUNION_R64_NE REUNION_R64_SE REUNION_R64_SW REUNION_R64_NW BOM_LAT BOM_LON BOM_TYPE BOM_WIND BOM_PRES BOM_TNUM BOM_CI BOM_RMW BOM_R34_NE BOM_R34_SE BOM_R34_SW BOM_R34_NW BOM_R50_NE BOM_R50_SE BOM_R50_SW BOM_R50_NW BOM_R64_NE BOM_R64_SE BOM_R64_SW BOM_R64_NW BOM_ROCI BOM_POCI BOM_EYE BOM_POS_METHOD BOM_PRES_METHOD NADI_LAT NADI_LON NADI_CAT NADI_WIND NADI_PRES WELLINGTON_LAT WELLINGTON_LON WELLINGTON_WIND WELLINGTON_PRES DS824_LAT DS824_LON DS824_STAGE DS824_WIND DS824_PRES TD9636_LAT TD9636_LON TD9636_STAGE TD9636_WIND TD9636_PRES TD9635_LAT TD9635_LON TD9635_WIND TD9635_PRES TD9635_ROCI NEUMANN_LAT NEUMANN_LON NEUMANN_CLASS NEUMANN_WIND NEUMANN_PRES MLC_LAT MLC_LON MLC_CLASS MLC_WIND MLC_PRES USA_GUST BOM_GUST BOM_GUST_PER REUNION_GUST REUNION_GUST_PER USA_SEAHGT USA_SEARAD_NE USA_SEARAD_SE USA_SEARAD_SW USA_SEARAD_NW STORM_SPEED STORM_DIR
1977040S16148 1977 18 SP EA LILY 1977-02-08 20:00:00 NR -15.8000 148.000 25 999 bom main 261 261 ______O_______ -1 -15.8000 148.000 20 25 999 2.00000 45 45 0 0
1977040S16148 1977 18 SP EA LILY 1977-02-08 21:00:00 NR -15.8000 148.000 main 261 261 ______P_______ -1 -15.8000 148.000 20 25 999 0 0
1977040S16148 1977 18 SP EA LILY 1977-02-08 23:00:00 NR -15.8000 148.000 25 999 bom main 261 261 ______O_______ -1 -15.8000 148.000 20 25 999 2.00000 45 45 0 0
1977040S16148 1977 18 SP EA LILY 1977-02-09 00:00:00 TS -15.8000 148.022 main 261 261 O_____P__OO_O_ jtwc_sh SH151977 -15.8000 148.000 35 0 -15.8000 148.000 20 25 999 -15.8000 148.000 TC 30 999 -15.8000 148.000 2 35 -15.8000 148.200 TC 30 999 0 91
1977040S16148 1977 18 SP EA LILY 1977-02-09 03:00:00 TS -15.8009 148.029 main 261 261 P_____P__PP_P_ SH151977 -15.7975 148.003 35 0 -15.8000 148.000 20 25 999 -15.8000 148.005 TC 30 999 -15.8110 147.994 2 35 -15.8000 148.202 TC 30 999 0 0
1977040S16148 1977 18 SP EA LILY 1977-02-09 05:00:00 TS -15.8020 148.031 25 999 bom main 261 261 P_____O__PP_P_ SH151977 -15.7983 148.002 35 0 -15.8000 148.000 20 25 999 2.00000 -15.8000 148.003 TC 30 999 -15.8162 147.991 2 35 -15.8000 148.202 TC 30 999 45 45 0 0
1977040S16148 1977 18 SP EA LILY 1977-02-09 06:00:00 TS -15.8029 148.031 main 261 261 O_____P__OP_O_ jtwc_sh SH151977 -15.8000 148.000 35 0 -15.8000 147.997 20 25 999 -15.8000 148.000 TC 30 999 -15.8177 147.990 2 35 -15.8000 148.200 TC 30 999 0 0
1977040S16148 1977 18 SP EA LILY 1977-02-09 09:00:00 TS -15.8051 148.024 main 261 261 P_____P__PP_P_ SH151977 -15.8075 147.993 35 0 -15.8000 147.992 20 25 999 -15.8000 147.985 TC 30 999 -15.8155 147.991 2 35 -15.8000 148.193 TC 30 999 0 0
1977040S16148 1977 18 SP EA LILY 1977-02-09 11:00:00 TS -15.8031 148.028 25 999 bom main 261 261 P_____O__PP_P_ SH151977 -15.8057 147.994 35 0 -15.8000 148.000 20 25 999 2.00000 -15.8000 147.989 TC 30 999 -15.8069 147.996 2 35 -15.8000 148.194 TC 30 999 45 45 0 0
1977040S16148 1977 18 SP EA LILY 1977-02-09 12:00:00 TS -15.8009 148.034 main 261 261 O_____P__OO_O_ jtwc_sh SH151977 -15.8000 148.000 35 0 -15.8052 148.006 20 25 999 -15.8000 148.000 TC 30 999 -15.8000 148.000 2 35 -15.8000 148.200 TC 30 999 1 68
1977040S16148 1977 18 SP EA LILY 1977-02-09 15:00:00 TS -15.7881 148.070 main 270 270 P_____P__PP_P_ SH151977 -15.7575 148.027 35 0 -15.8158 148.045 20 25 999 -15.8150 148.070 TC 30 999 -15.7682 148.022 2 33 -15.8150 148.227 TC 30 999 1 67
1977040S16148 1977 18 SP EA LILY 1977-02-09 17:00:00 TS -15.7667 148.119 25 1000 bom main 270 270 P_____O__PP_P_ SH151977 -15.7193 148.069 35 0 -15.8000 148.100 20 25 1000 2.00000 -15.8114 148.150 TC 30 999 -15.7388 148.055 2 32 -15.8114 148.269 TC 30 999 45 45 2 64
1977040S16148 1977 18 SP EA LILY 1977-02-09 18:00:00 TS -15.7496 148.149 main 276 276 O_____P__OP_O_ jtwc_sh SH151977 -15.7000 148.100 35 0 -15.7754 148.115 20 25 1000 -15.8000 148.200 TC 30 1000 -15.7220 148.080 2 32 -15.8000 148.300 TC 30 1000 2 56
1977040S16148 1977 18 SP EA LILY 1977-02-09 21:00:00 TS -15.6773 148.254 main 294 294 P_____P__PP_P_ SH151977 -15.6574 148.205 32 -1 -15.6694 148.218 20 25 1000 -15.7073 148.333 TC 30 1000 -15.6649 148.197 2 31 -15.7072 148.367 TC 27 1000 3 61
1977040S16148 1977 18 SP EA LILY 1977-02-09 23:00:00 TS -15.6221 148.391 25 1001 bom main 309 309 P_____O__PP_P_ SH151977 -15.6223 148.322 30 -1 -15.6000 148.400 20 25 1001 2.00000 -15.6327 148.488 TC 30 1000 -15.6223 148.321 2 30 -15.6327 148.493 TC 25 1000 45 45 5 71
1977040S16148 1977 18 SP EA LILY 1977-02-10 00:00:00 TS -15.5968 148.495 main 318 318 O_____P__OO_O_ jtwc_sh SH151977 -15.6000 148.400 30 -1 -15.5805 148.570 20 25 1000 -15.6000 148.600 TC 30 1001 -15.6000 148.400 1 30 -15.6000 148.600 TC 25 1001 8 80
1977040S16148 1977 18 SP EA LILY 1977-02-10 03:00:00 TS -15.5269 148.945 main 361 361 P_____P__PP_P_ SH151977 -15.5000 148.705 30 -1 -15.5363 149.214 20 25 1000 -15.5505 149.158 TC 30 1000 -15.5241 148.698 1 30 -15.5506 149.193 TC 27 1000 9 81
1977040S16148 1977 18 SP EA LILY 1977-02-10 05:00:00 TS -15.4784 149.272 25 1000 bom main 399 399 P_____O__PP_P_ SH151977 -15.4302 148.961 30 -1 -15.5000 149.600 20 25 1000 2.00000 -15.5200 149.544 TC 30 1000 -15.4698 148.945 1 30 -15.5201 149.622 TC 29 1000 45 45 9 81
1977040S16148 1977 18 SP EA LILY 1977-02-10 06:00:00 TS -15.4516 149.417 main 409 409 O_____P__OP_O_ jtwc_sh SH151977 -15.4000 149.100 30 -1 -15.4670 149.723 20 25 1000 -15.5000 149.700 TC 30 1000 -15.4426 149.080 1 30 -15.5000 149.800 TC 30 1000 7 76
1977040S16148 1977 18 SP EA LILY 1977-02-10 09:00:00 TS -15.3625 149.757 main 453 453 P_____P__PP_P_ SH151977 -15.3349 149.528 30 -1 -15.3561 149.942 20 28 1000 -15.3923 149.932 TC 30 1000 -15.3647 149.523 1 30 -15.3923 150.090 TC 27 1000 6 75
1977040S16148 1977 18 SP EA LILY 1977-02-10 11:00:00 TS -15.3142 149.947 30 1001 bom main 467 467 P_____O__PP_P_ SH151977 -15.3083 149.839 30 -1 -15.3000 150.000 20 30 1001 2.00000 -15.3245 149.988 TC 30 1000 -15.3195 149.839 1 30 -15.3244 150.177 TC 25 1000 45 45 6 77
1977040S16148 1977 18 SP EA LILY 1977-02-10 12:00:00 TS -15.2985 150.037 main 477 477 O_____P__OO_O_ jtwc_sh SH151977 -15.3000 150.000 30 -1 -15.2912 150.023 20 30 1000 -15.3000 150.000 TC 30 1001 -15.3000 150.000 1 30 -15.3000 150.200 TC 25 1001 5 86
1977040S16148 1977 18 SP EA LILY 1977-02-10 15:00:00 TS -15.2906 150.315 main 506 506 P_____P__PP_P_ SH151977 -15.2999 150.492 30 -1 -15.2970 150.022 20 30 999 -15.2925 150.022 TC 30 1000 -15.2616 150.634 1 31 -15.2925 150.230 TC 27 1000 5 89
1977040S16148 1977 18 SP EA LILY 1977-02-10 17:00:00 TS -15.2918 150.491 30 999 bom main 515 515 P_____O__PP_P_ SH151977 -15.3030 150.831 30 -1 -15.3000 150.000 20 30 999 2.00000 -15.3005 150.008 TC 30 999 -15.2436 151.066 1 32 -15.3005 150.210 TC 29 999 45 45 5 89
1977040S16148 1977 18 SP EA LILY 1977-02-10 18:00:00 TS -15.2875 150.578 main 515 506 O_____P__OP_O_ jtwc_sh SH151977 -15.3000 151.000 30 -1 -15.2890 150.000 20 30 999 -15.3000 150.000 TC 30 999 -15.2361 151.270 1 32 -15.3000 150.200 TC 30 999 6 83
1977040S16148 1977 18 SP EA LILY 1977-02-10 21:00:00 TS -15.2452 150.874 main 506 506 P_____P__PP_P_ SH151977 -15.2502 151.635 32 -1 -15.2388 150.000 20 33 999 -15.2575 150.000 TC 30 999 -15.2173 151.771 1 33 -15.2575 150.200 TC 30 999 5 80
1977040S16148 1977 18 SP EA LILY 1977-02-10 23:00:00 TS -15.2119 151.006 35 999 bom main 508 508 P_____O__PP_P_ SH151977 -15.2136 151.936 34 0 -15.2000 150.000 30 35 999 2.50000 -15.2193 150.000 TC 30 999 -15.2059 151.963 1 34 -15.2193 150.200 TC 30 999 49 49 3 72
1977040S16148 1977 18 SP EA LILY 1977-02-11 00:00:00 TS -15.1968 151.033 main 508 506 O_____P__OO_O_ jtwc_sh SH151977 -15.2000 152.000 35 0 -15.1807 150.000 30 35 998 -15.2000 150.000 TC 30 999 -15.2000 152.000 2 35 -15.2000 150.200 TC 30 999 2 297
1977040S16148 1977 18 SP EA LILY 1977-02-11 03:00:00 TS -15.1644 150.905 main 506 493 P_____P__PP_P_ SH151977 -15.1999 151.765 35 0 -15.1254 150.000 30 35 997 -15.1425 150.000 TC 32 997 -15.1762 151.698 2 36 -15.1425 150.200 TC 32 997 4 279
1977040S16148 1977 18 SP EA LILY 1977-02-11 05:00:00 TS -15.1481 150.724 35 996 bom main 493 493 P_____O__PP_P_ SH151977 -15.2030 151.403 35 0 -15.1000 150.000 30 35 996 2.50000 -15.1110 150.000 TC 34 996 -15.1603 151.340 2 37 -15.1110 150.200 TC 34 996 49 49 5 275
1977040S16148 1977 18 SP EA LILY 1977-02-11 06:00:00 TS -15.1411 150.622 main 493 492 O_____P__OP_O_ jtwc_sh SH151977 -15.2000 151.200 35 0 -15.0943 150.000 30 35 996 -15.1000 150.000 TC 35 996 -15.1522 151.135 2 37 -15.1000 150.200 TC 35 996 6 274
1977040S16148 1977 18 SP EA LILY 1977-02-11 09:00:00 TS -15.1179 150.300 main 492 492 P_____P__PP_P_ SH151977 -15.1505 150.547 37 0 -15.0946 150.000 30 35 997 -15.0925 150.000 TC 35 997 -15.1267 150.504 2 38 -15.0925 150.200 TC 35 997 6 274
1977040S16148 1977 18 SP EA LILY 1977-02-11 11:00:00 TS -15.1052 150.106 35 998 bom main 492 487 P_____O__PP_P_ SH151977 -15.1138 150.148 39 0 -15.1000 150.000 30 35 998 2.50000 -15.0974 150.000 TC 35 997 -15.1089 150.142 2 39 -15.0974 150.200 TC 35 997 49 49 5 274
1977040S16148 1977 18 SP EA LILY 1977-02-11 12:00:00 TS -15.1004 150.032 main 487 477 O_____P__OO_O_ jtwc_sh SH151977 -15.1000 150.000 40 0 -15.1026 149.995 30 35 997 -15.1000 150.000 TC 35 998 -15.1000 150.000 2 40 -15.1000 150.200 TC 35 998 3 272
1977040S16148 1977 18 SP EA LILY 1977-02-11 15:00:00 TS -15.0983 149.933 main 477 477 P_____P__PP_P_ SH151977 -15.0997 149.838 40 0 -15.1079 149.984 30 35 997 -15.1025 150.000 TC 35 997 -15.0737 149.770 2 37 -15.1075 150.185 TC 35 997 1 274
1977040S16148 1977 18 SP EA LILY 1977-02-11 17:00:00 TS -15.0944 149.941 35 997 bom main 477 477 P_____O__PP_P_ SH151977 -15.1030 149.865 40 0 -15.1000 150.000 30 35 997 2.50000 -15.1011 150.000 TC 35 997 -15.0569 149.755 2 35 -15.1057 150.189 TC 35 997 49 49 1 0
1977040S16148 1977 18 SP EA LILY 1977-02-11 18:00:00 TS -15.0882 149.959 main 487 487 O_____P__OP_O_ jtwc_sh SH151977 -15.1000 149.900 40 0 -15.0901 150.020 30 34 997 -15.1000 150.000 TC 35 997 -15.0486 149.780 2 35 -15.1000 150.200 TC 35 997 2 72
1977040S16148 1977 18 SP EA LILY 1977-02-11 21:00:00 TS -15.0508 150.082 main 492 481 P_____P___P_P_ SH151977 -15.0626 150.038 35 0 -15.0413 150.118 30 31 998 TC -15.0242 149.950 2 32 -15.0600 150.280 TC 32 998 3 72
1977040S16148 1977 18 SP EA LILY 1977-02-11 23:00:00 TS -15.0163 150.191 30 1000 bom main 481 481 P_____O___P_P_ SH151977 -15.0221 150.145 31 -1 -15.0000 150.200 20 30 1000 2.00000 TC -15.0081 150.113 2 30 -15.0210 150.358 TC 30 999 45 45 3 73
1977040S16148 1977 18 SP EA LILY 1977-02-12 00:00:00 TS -15.0000 150.250 main 481 O_________O_O_ jtwc_sh SH151977 -15.0000 150.200 30 -1 20 -15.0000 150.200 1 30 -15.0000 150.400 TC 30 1000 4 73

Digital Typhoon Data and Search

About IBTrACS Database

This database is a web-friendly format of International Best Track Archive for Climate Stewardship (IBTrACS), a global best track data archive curated by NOAA dating back to 1842.

Updated: 2021-10-25